createdAt,value
2023-01-26T00:01:25.081Z,18.20
2023-01-26T00:03:54.310Z,19.90
2023-01-26T00:06:22.299Z,21.30
2023-01-26T00:08:51.590Z,23.30
2023-01-26T00:11:33.603Z,25.98
2023-01-26T00:16:27.863Z,23.83
2023-01-26T00:18:54.477Z,20.02
2023-01-26T00:21:23.429Z,22.13
2023-01-26T00:23:51.012Z,20.08
2023-01-26T00:26:20.292Z,23.33
2023-01-26T00:28:49.908Z,25.55
2023-01-26T00:31:19.629Z,22.98
2023-01-26T00:33:46.719Z,24.55
2023-01-26T00:36:14.771Z,26.55
2023-01-26T00:38:47.445Z,24.88
2023-01-26T00:41:32.935Z,24.08
2023-01-26T00:44:02.515Z,24.92
2023-01-26T00:46:29.347Z,24.60
2023-01-26T00:48:57.166Z,26.98
2023-01-26T00:51:23.753Z,25.30
2023-01-26T00:53:50.322Z,26.75
2023-01-26T00:56:16.849Z,25.92
2023-01-26T00:58:44.765Z,23.20
2023-01-26T01:01:11.648Z,27.90
2023-01-26T01:03:41.534Z,25.40
2023-01-26T01:06:07.973Z,28.02
2023-01-26T01:08:37.335Z,25.58
2023-01-26T01:11:10.329Z,23.88
2023-01-26T01:13:37.477Z,25.27
2023-01-26T01:16:08.693Z,25.00
2023-01-26T01:18:36.064Z,19.98
2023-01-26T01:21:07.539Z,22.60
2023-01-26T01:23:37.055Z,21.88
2023-01-26T01:26:05.104Z,20.85
2023-01-26T01:28:32.705Z,19.67
2023-01-26T01:31:07.826Z,19.90
2023-01-26T01:33:35.068Z,20.17
2023-01-26T01:36:04.558Z,21.20
2023-01-26T01:38:34.951Z,20.65
2023-01-26T01:41:01.453Z,26.40
2023-01-26T01:43:31.610Z,26.77
2023-01-26T01:46:00.790Z,19.35
2023-01-26T01:48:54.945Z,22.83
2023-01-26T01:51:31.277Z,25.42
2023-01-26T01:54:02.721Z,21.10
2023-01-26T01:56:30.105Z,21.58
2023-01-26T01:58:59.706Z,23.85
2023-01-26T02:01:26.608Z,23.25
2023-01-26T02:03:56.709Z,23.05
2023-01-26T02:06:30.175Z,21.63
2023-01-26T02:08:57.985Z,21.02
2023-01-26T02:11:41.992Z,21.58
2023-01-26T02:14:11.535Z,21.00
2023-01-26T02:16:40.084Z,19.67
2023-01-26T02:19:21.636Z,22.05
2023-01-26T02:21:52.629Z,23.35
2023-01-26T02:24:36.265Z,20.87
2023-01-26T02:27:05.921Z,20.45
2023-01-26T02:29:32.611Z,18.77
2023-01-26T02:31:59.114Z,20.95
2023-01-26T02:34:28.813Z,23.05
2023-01-26T02:37:01.577Z,25.25
2023-01-26T02:39:58.223Z,26.05
2023-01-26T02:42:41.090Z,24.25
2023-01-26T02:45:16.101Z,25.30
2023-01-26T02:47:42.808Z,25.52
2023-01-26T02:50:10.832Z,22.20
2023-01-26T02:52:38.565Z,23.42
2023-01-26T02:55:28.454Z,24.90
2023-01-26T02:58:01.184Z,26.77
2023-01-26T03:00:30.812Z,25.60
2023-01-26T03:03:00.862Z,21.60
2023-01-26T03:05:28.449Z,22.38
2023-01-26T03:07:55.849Z,22.05
2023-01-26T03:10:25.155Z,24.83
2023-01-26T03:12:52.157Z,25.10
2023-01-26T03:15:37.580Z,25.10
2023-01-26T03:18:24.286Z,26.05
2023-01-26T03:21:09.188Z,26.55
2023-01-26T03:23:53.807Z,24.27
2023-01-26T03:26:38.902Z,25.08
2023-01-26T03:29:05.585Z,26.10
2023-01-26T03:31:32.207Z,23.00
2023-01-26T03:33:58.783Z,27.23
2023-01-26T03:36:25.271Z,27.20
2023-01-26T03:38:51.743Z,26.55
2023-01-26T03:41:36.760Z,25.17
2023-01-26T03:44:21.616Z,26.58
2023-01-26T03:47:06.289Z,24.92
2023-01-26T03:49:51.205Z,37.85
2023-01-26T03:52:35.983Z,44.20
2023-01-26T03:55:20.903Z,45.70
2023-01-26T03:57:48.955Z,46.67
2023-01-26T04:00:15.804Z,45.83
2023-01-26T04:03:00.749Z,45.63
2023-01-26T04:05:45.529Z,44.65
2023-01-26T04:08:24.074Z,48.88
2023-01-26T04:10:54.547Z,51.03
2023-01-26T04:13:41.427Z,49.58
2023-01-26T04:16:28.397Z,48.70
2023-01-26T04:19:14.208Z,51.83
2023-01-26T04:21:40.809Z,53.22
2023-01-26T04:24:16.828Z,48.42
2023-01-26T04:26:44.157Z,48.05
2023-01-26T04:29:13.036Z,47.95
2023-01-26T04:31:40.564Z,50.70
2023-01-26T04:34:11.674Z,48.15
2023-01-26T04:36:39.211Z,48.10
2023-01-26T04:39:05.942Z,44.85
2023-01-26T04:41:32.825Z,40.03
2023-01-26T04:43:59.348Z,48.30
2023-01-26T04:46:26.035Z,48.08
2023-01-26T04:48:52.909Z,52.47
2023-01-26T04:51:21.944Z,45.58
2023-01-26T04:53:50.349Z,48.25
2023-01-26T04:56:29.535Z,51.65
2023-01-26T04:58:59.903Z,48.88
2023-01-26T05:01:26.731Z,50.28
2023-01-26T05:03:53.363Z,48.80
2023-01-26T05:06:19.869Z,52.70
2023-01-26T05:08:46.454Z,50.13
2023-01-26T05:11:12.934Z,53.00
2023-01-26T05:13:39.744Z,50.45
2023-01-26T05:16:07.830Z,52.70
2023-01-26T05:18:34.337Z,50.95
2023-01-26T05:21:00.898Z,47.60
2023-01-26T05:23:27.432Z,45.90
2023-01-26T05:25:53.950Z,44.72
2023-01-26T05:28:20.397Z,45.47
2023-01-26T05:30:47.910Z,46.88
2023-01-26T05:33:14.983Z,48.15
2023-01-26T05:35:42.096Z,42.38
2023-01-26T05:38:08.808Z,45.60
2023-01-26T05:40:35.264Z,45.63
2023-01-26T05:43:01.737Z,44.78
2023-01-26T05:45:28.248Z,43.22
2023-01-26T05:47:54.926Z,45.22
2023-01-26T05:50:21.408Z,44.53
2023-01-26T05:52:48.180Z,45.50
2023-01-26T05:55:14.795Z,44.90
2023-01-26T05:57:41.552Z,47.40
2023-01-26T06:00:09.291Z,48.05
2023-01-26T06:02:36.053Z,45.00
2023-01-26T06:05:02.692Z,42.53
2023-01-26T06:07:29.228Z,44.30
2023-01-26T06:09:55.699Z,41.63
2023-01-26T06:12:22.893Z,50.55
2023-01-26T06:14:49.916Z,40.42
2023-01-26T06:17:18.268Z,44.83
2023-01-26T06:19:44.811Z,43.40
2023-01-26T06:22:13.102Z,40.42
2023-01-26T06:24:39.624Z,41.38
2023-01-26T06:27:14.985Z,39.13
2023-01-26T06:29:45.724Z,40.42
2023-01-26T06:32:13.092Z,41.15
2023-01-26T06:34:40.031Z,43.97
2023-01-26T06:37:07.574Z,42.70
2023-01-26T06:39:34.301Z,42.92
2023-01-26T06:42:00.868Z,39.53
2023-01-26T06:44:27.401Z,38.40
2023-01-26T06:46:54.153Z,39.13
2023-01-26T06:49:20.607Z,43.10
2023-01-26T06:52:03.231Z,41.15
2023-01-26T06:54:29.780Z,44.88
2023-01-26T06:56:56.364Z,43.15
2023-01-26T06:59:23.418Z,46.25
2023-01-26T07:01:53.353Z,45.17
2023-01-26T07:04:19.849Z,40.22
2023-01-26T07:06:46.375Z,45.95
2023-01-26T07:09:12.867Z,46.15
2023-01-26T07:11:39.460Z,41.33
2023-01-26T07:14:06.083Z,42.60
2023-01-26T07:16:33.821Z,49.40
2023-01-26T07:19:01.004Z,40.63
2023-01-26T07:21:27.571Z,43.28
2023-01-26T07:23:56.036Z,41.70
2023-01-26T07:26:22.607Z,41.45
2023-01-26T07:28:49.115Z,41.03
2023-01-26T07:31:16.955Z,40.78
2023-01-26T07:33:43.541Z,43.90
2023-01-26T07:36:11.028Z,42.90
2023-01-26T07:38:38.136Z,43.78
2023-01-26T07:41:09.998Z,41.00
2023-01-26T07:46:06.571Z,43.08
2023-01-26T07:48:34.437Z,40.25
2023-01-26T07:51:03.569Z,44.35
2023-01-26T07:53:31.072Z,41.97
2023-01-26T07:56:12.229Z,39.33
2023-01-26T07:58:39.320Z,31.02
2023-01-26T08:01:11.451Z,33.83
2023-01-26T08:03:38.401Z,32.20
2023-01-26T08:06:05.338Z,34.22
2023-01-26T08:08:32.315Z,30.95
2023-01-26T08:11:00.732Z,32.13
2023-01-26T08:13:35.756Z,33.50
2023-01-26T08:16:05.537Z,33.97
2023-01-26T08:18:32.321Z,31.45
2023-01-26T08:20:58.961Z,32.88
2023-01-26T08:23:25.456Z,27.73
2023-01-26T08:25:52.010Z,30.80
2023-01-26T08:28:20.950Z,32.55
2023-01-26T08:30:47.694Z,36.95
2023-01-26T08:33:14.187Z,31.75
2023-01-26T08:35:43.304Z,29.75
2023-01-26T08:38:09.797Z,34.28
2023-01-26T08:40:36.300Z,38.97
2023-01-26T08:43:03.618Z,39.08
2023-01-26T08:45:33.344Z,33.65
2023-01-26T08:47:59.915Z,38.45
2023-01-26T08:50:26.436Z,35.90
2023-01-26T08:52:55.813Z,39.38
2023-01-26T08:55:22.451Z,36.85
2023-01-26T08:57:55.223Z,33.97
2023-01-26T09:00:23.715Z,39.78
2023-01-26T09:02:50.721Z,38.38
2023-01-26T09:05:17.591Z,38.15
2023-01-26T09:07:44.606Z,34.40
2023-01-26T09:10:11.710Z,29.55
2023-01-26T09:12:40.910Z,30.70
2023-01-26T09:15:08.796Z,27.45
2023-01-26T09:17:35.535Z,26.02
2023-01-26T09:20:07.141Z,27.67
2023-01-26T09:22:33.636Z,25.25
2023-01-26T09:25:00.147Z,27.20
2023-01-26T09:27:27.029Z,30.48
2023-01-26T09:29:54.009Z,31.10
2023-01-26T09:32:20.776Z,28.27
2023-01-26T09:34:47.476Z,22.00
2023-01-26T09:37:14.585Z,23.05
2023-01-26T09:39:41.340Z,21.50
2023-01-26T09:42:22.747Z,25.73
2023-01-26T09:45:02.784Z,20.88
2023-01-26T09:47:52.774Z,19.88
2023-01-26T09:50:25.746Z,21.02
2023-01-26T09:53:08.010Z,20.92
2023-01-26T09:55:34.537Z,21.65
2023-01-26T09:58:06.679Z,22.65
2023-01-26T10:00:48.823Z,19.27
2023-01-26T10:03:18.230Z,18.98
2023-01-26T10:06:10.427Z,19.35
2023-01-26T10:11:14.098Z,19.38
2023-01-26T10:13:47.151Z,17.73
2023-01-26T10:16:14.837Z,16.92
2023-01-26T10:18:53.874Z,13.90
2023-01-26T10:21:25.422Z,18.27
2023-01-26T10:23:52.561Z,18.80
2023-01-26T10:26:21.932Z,24.52
2023-01-26T10:28:51.219Z,22.83
2023-01-26T10:31:21.797Z,17.20
2023-01-26T10:34:14.186Z,17.92
2023-01-26T10:39:10.892Z,16.33
2023-01-26T10:41:39.158Z,14.18
2023-01-26T10:44:40.229Z,51.00
2023-01-26T10:47:18.349Z,69.10
2023-01-26T10:49:44.814Z,31.50
2023-01-26T10:52:22.856Z,98.55
2023-01-26T10:55:09.910Z,120.50
2023-01-26T10:57:45.172Z,52.72
2023-01-26T11:00:30.234Z,20.30
2023-01-26T11:03:06.180Z,25.75
2023-01-26T11:05:32.959Z,28.17
2023-01-26T11:08:00.297Z,28.70
2023-01-26T11:10:32.921Z,39.72
2023-01-26T11:13:20.218Z,16.67
2023-01-26T11:16:22.769Z,17.05
2023-01-26T11:19:13.586Z,13.82
2023-01-26T11:21:42.229Z,13.38
2023-01-26T11:24:34.675Z,10.18
2023-01-26T11:27:30.013Z,10.80
2023-01-26T11:30:05.268Z,10.55
2023-01-26T11:32:46.997Z,10.85
2023-01-26T11:35:28.388Z,12.57
2023-01-26T11:38:19.699Z,16.17
2023-01-26T11:41:14.034Z,13.70
2023-01-26T11:43:40.479Z,10.88
2023-01-26T11:46:21.671Z,14.82
2023-01-26T11:49:16.948Z,12.20
2023-01-26T11:51:52.247Z,12.27
2023-01-26T11:54:36.160Z,121.63
2023-01-26T11:57:44.206Z,75.60
2023-01-26T12:00:30.157Z,46.20
2023-01-26T12:03:05.664Z,21.77
2023-01-26T12:05:44.436Z,35.67
2023-01-26T12:08:23.083Z,36.80
2023-01-26T12:10:58.503Z,16.83
2023-01-26T12:13:38.861Z,29.10
2023-01-26T12:16:17.062Z,15.85
2023-01-26T12:19:10.083Z,18.70
2023-01-26T12:21:40.472Z,19.27
2023-01-26T12:24:39.241Z,17.08
2023-01-26T12:27:06.537Z,23.35
2023-01-26T12:29:52.364Z,21.75
2023-01-26T12:32:20.521Z,23.52
2023-01-26T12:34:47.044Z,23.40
2023-01-26T12:37:38.141Z,24.50
2023-01-26T12:40:24.822Z,30.00
2023-01-26T12:43:06.839Z,29.60
2023-01-26T12:48:10.256Z,34.28
2023-01-26T12:50:59.317Z,47.90
2023-01-26T12:53:40.827Z,37.42
2023-01-26T12:56:17.073Z,35.78
2023-01-26T12:58:47.087Z,37.22
2023-01-26T13:01:13.586Z,37.60
2023-01-26T13:03:44.603Z,42.50
2023-01-26T13:06:13.434Z,46.13
2023-01-26T13:08:41.609Z,54.22
2023-01-26T13:11:09.575Z,46.45
2023-01-26T13:13:56.429Z,41.72
2023-01-26T13:16:23.649Z,39.33
2023-01-26T13:18:58.319Z,40.15
2023-01-26T13:21:48.263Z,52.10
2023-01-26T13:24:17.957Z,49.08
2023-01-26T13:26:46.673Z,45.50
2023-01-26T13:29:25.318Z,44.97
2023-01-26T13:31:52.855Z,42.53
2023-01-26T13:34:31.343Z,47.58
2023-01-26T13:37:06.498Z,39.65
2023-01-26T13:39:36.904Z,50.10
2023-01-26T13:42:16.577Z,49.78
2023-01-26T13:44:50.565Z,53.63
2023-01-26T13:47:26.056Z,56.30
2023-01-26T13:49:52.617Z,52.40
2023-01-26T13:52:24.181Z,55.05
2023-01-26T13:54:52.831Z,51.55
2023-01-26T13:57:27.905Z,51.10
2023-01-26T14:00:01.688Z,82.40
2023-01-26T14:02:31.410Z,65.85
2023-01-26T14:04:59.329Z,67.53
2023-01-26T14:07:31.686Z,78.53
2023-01-26T14:10:08.840Z,75.35
2023-01-26T14:12:44.235Z,70.80
2023-01-26T14:15:24.964Z,130.07
2023-01-26T14:17:57.321Z,173.77
2023-01-26T14:20:35.763Z,65.72
2023-01-26T14:23:11.421Z,69.72
2023-01-26T14:25:38.989Z,78.82
2023-01-26T14:28:06.841Z,134.65
2023-01-26T14:30:34.734Z,68.10
2023-01-26T14:33:11.267Z,67.65
2023-01-26T14:35:37.734Z,66.53
2023-01-26T14:38:13.059Z,64.22
2023-01-26T14:40:50.424Z,64.07
2023-01-26T14:43:17.555Z,63.22
2023-01-26T14:45:55.025Z,65.22
2023-01-26T14:48:29.745Z,64.65
2023-01-26T14:50:56.692Z,61.60
2023-01-26T14:53:24.938Z,60.20
2023-01-26T14:55:53.155Z,87.43
2023-01-26T14:58:24.416Z,66.10
2023-01-26T15:01:00.046Z,70.07
2023-01-26T15:03:33.787Z,63.53
2023-01-26T15:06:15.224Z,60.72
2023-01-26T15:08:52.213Z,49.80
2023-01-26T15:11:45.719Z,56.80
2023-01-26T15:14:48.236Z,63.40
2023-01-26T15:17:36.369Z,60.30
2023-01-26T15:20:10.986Z,65.75
2023-01-26T15:22:37.723Z,56.78
2023-01-26T15:25:28.135Z,57.92
2023-01-26T15:27:59.771Z,61.92
2023-01-26T15:30:37.645Z,68.38
2023-01-26T15:33:04.204Z,58.90
2023-01-26T15:35:32.396Z,65.30
2023-01-26T15:38:19.955Z,62.78
2023-01-26T15:40:46.378Z,57.33
2023-01-26T15:43:18.443Z,56.67
2023-01-26T15:45:58.455Z,56.28
2023-01-26T15:48:25.479Z,60.58
2023-01-26T15:50:52.411Z,58.90
2023-01-26T15:53:21.377Z,65.05
2023-01-26T15:55:58.570Z,57.50
2023-01-26T15:58:26.068Z,55.00
2023-01-26T16:00:53.264Z,56.42
2023-01-26T16:03:22.060Z,58.67
2023-01-26T16:05:49.260Z,58.60
2023-01-26T16:08:17.822Z,63.50
2023-01-26T16:10:44.848Z,65.68
2023-01-26T16:13:17.639Z,64.05
2023-01-26T16:15:52.882Z,59.60
2023-01-26T16:18:20.331Z,56.35
2023-01-26T16:20:49.249Z,62.45
2023-01-26T16:23:18.191Z,62.88
2023-01-26T16:25:44.790Z,54.90
2023-01-26T16:28:11.400Z,60.70
2023-01-26T16:30:37.892Z,51.88
2023-01-26T16:33:05.478Z,55.30
2023-01-26T16:35:32.010Z,55.72
2023-01-26T16:37:58.458Z,57.28
2023-01-26T16:40:24.909Z,58.13
2023-01-26T16:42:53.302Z,57.65
2023-01-26T16:45:26.775Z,57.72
2023-01-26T16:47:56.046Z,51.83
2023-01-26T16:50:26.484Z,48.45
2023-01-26T16:52:53.441Z,48.55
2023-01-26T16:55:20.153Z,56.97
2023-01-26T16:57:49.796Z,46.28
2023-01-26T17:00:19.166Z,45.97
2023-01-26T17:02:52.582Z,47.40
2023-01-26T17:05:21.024Z,45.58
2023-01-26T17:07:48.072Z,41.75
2023-01-26T17:10:15.718Z,38.50
2023-01-26T17:12:42.240Z,34.15
2023-01-26T17:15:11.311Z,32.55
2023-01-26T17:17:38.053Z,29.60
2023-01-26T17:20:18.341Z,41.65
2023-01-26T17:22:45.619Z,170.90
2023-01-26T17:25:14.587Z,155.48
2023-01-26T17:27:43.393Z,233.98
2023-01-26T17:30:11.028Z,547.20
2023-01-26T17:32:37.591Z,64.75
2023-01-26T17:35:04.468Z,74.70
2023-01-26T17:37:31.624Z,68.35
2023-01-26T17:39:58.810Z,82.05
2023-01-26T17:42:25.827Z,27.48
2023-01-26T17:44:52.546Z,111.82
2023-01-26T17:47:19.149Z,103.03
2023-01-26T17:49:45.676Z,83.10
2023-01-26T17:52:14.339Z,105.60
2023-01-26T17:54:44.422Z,126.72
2023-01-26T17:57:10.963Z,535.30
2023-01-26T17:59:37.633Z,347.88
2023-01-26T18:02:04.153Z,170.00
2023-01-26T18:04:31.564Z,101.53
2023-01-26T18:06:58.192Z,107.25
2023-01-26T18:09:24.992Z,93.53
2023-01-26T18:11:51.501Z,95.10
2023-01-26T18:14:17.964Z,53.97
2023-01-26T18:16:44.527Z,134.20
2023-01-26T18:19:11.164Z,110.22
2023-01-26T18:21:38.054Z,150.25
2023-01-26T18:24:05.883Z,122.82
2023-01-26T18:26:35.755Z,37.83
2023-01-26T18:29:04.266Z,119.20
2023-01-26T18:31:35.771Z,27.88
2023-01-26T18:34:04.197Z,31.17
2023-01-26T18:36:31.225Z,30.00
2023-01-26T18:39:00.609Z,28.05
2023-01-26T18:41:30.316Z,28.92
2023-01-26T18:43:58.476Z,26.65
2023-01-26T18:46:27.041Z,33.63
2023-01-26T18:48:54.760Z,32.95
2023-01-26T18:51:22.624Z,23.73
2023-01-26T18:53:49.480Z,20.00
2023-01-26T18:56:16.816Z,22.90
2023-01-26T18:58:43.322Z,40.50
2023-01-26T19:01:15.161Z,25.05
2023-01-26T19:06:09.846Z,27.65
2023-01-26T19:08:36.312Z,24.13
2023-01-26T19:11:07.620Z,23.75
2023-01-26T19:13:35.332Z,25.60
2023-01-26T19:16:02.439Z,25.08
2023-01-26T19:18:29.397Z,29.42
2023-01-26T19:20:57.178Z,29.98
2023-01-26T19:23:23.911Z,27.75
2023-01-26T19:25:50.553Z,29.15
2023-01-26T19:28:17.488Z,25.92
2023-01-26T19:30:44.383Z,27.02
2023-01-26T19:33:29.037Z,28.33
2023-01-26T19:35:56.527Z,25.83
2023-01-26T19:38:23.889Z,26.48
2023-01-26T19:40:51.795Z,29.70
2023-01-26T19:43:19.330Z,25.80
2023-01-26T19:45:53.926Z,28.17
2023-01-26T19:48:23.014Z,26.40
2023-01-26T19:51:12.185Z,25.55
2023-01-26T19:53:41.745Z,29.45
2023-01-26T19:56:18.887Z,27.30
2023-01-26T19:58:57.487Z,42.10
2023-01-26T20:01:24.919Z,31.42
2023-01-26T20:03:58.800Z,26.58
2023-01-26T20:06:27.590Z,26.52
2023-01-26T20:08:55.113Z,30.15
2023-01-26T20:11:24.989Z,35.95
2023-01-26T20:14:00.137Z,26.23
2023-01-26T20:16:28.195Z,28.23
2023-01-26T20:18:59.618Z,22.30
2023-01-26T20:21:27.551Z,22.38
2023-01-26T20:23:55.963Z,26.73
2023-01-26T20:26:24.750Z,24.23
2023-01-26T20:28:52.243Z,27.05
2023-01-26T20:31:22.551Z,24.55
2023-01-26T20:33:51.220Z,22.20
2023-01-26T20:36:22.637Z,21.45
2023-01-26T20:38:49.694Z,21.67
2023-01-26T20:41:19.362Z,26.45
2023-01-26T20:43:58.548Z,23.55
2023-01-26T20:46:29.412Z,23.20
2023-01-26T20:48:56.758Z,18.13
2023-01-26T20:51:30.542Z,19.38
2023-01-26T20:53:57.864Z,16.95
2023-01-26T20:56:24.844Z,17.98
2023-01-26T20:58:53.097Z,16.52
2023-01-26T21:01:20.278Z,15.70
2023-01-26T21:03:46.842Z,17.67
2023-01-26T21:06:15.883Z,16.05
2023-01-26T21:08:43.280Z,18.98
2023-01-26T21:11:13.378Z,17.20
2023-01-26T21:13:43.835Z,32.53
2023-01-26T21:16:18.434Z,48.47
2023-01-26T21:18:49.294Z,43.30
2023-01-26T21:21:22.965Z,40.67
2023-01-26T21:23:50.391Z,22.67
2023-01-26T21:26:23.062Z,18.05
2023-01-26T21:28:53.567Z,32.20
2023-01-26T21:31:22.097Z,21.83
2023-01-26T21:33:49.848Z,23.20
2023-01-26T21:36:21.630Z,23.50
2023-01-26T21:38:52.713Z,22.92
2023-01-26T21:41:39.254Z,27.42
2023-01-26T21:44:14.323Z,30.50
2023-01-26T21:46:41.287Z,28.52
2023-01-26T21:49:08.049Z,26.50
2023-01-26T21:51:53.657Z,23.45
2023-01-26T21:54:20.796Z,22.35
2023-01-26T21:56:47.255Z,23.35
2023-01-26T21:59:16.524Z,21.30
2023-01-26T22:01:44.434Z,20.52
2023-01-26T22:04:18.054Z,22.25
2023-01-26T22:06:44.658Z,23.38
2023-01-26T22:09:14.078Z,20.48
2023-01-26T22:11:40.687Z,21.15
2023-01-26T22:14:08.255Z,18.25
2023-01-26T22:16:34.781Z,19.00
2023-01-26T22:19:01.257Z,18.20
2023-01-26T22:21:29.457Z,17.15
2023-01-26T22:23:58.646Z,22.95
2023-01-26T22:26:25.215Z,17.05
2023-01-26T22:28:57.413Z,17.20
2023-01-26T22:31:29.751Z,18.17
2023-01-26T22:33:58.004Z,16.90
2023-01-26T22:36:25.366Z,18.52
2023-01-26T22:38:52.760Z,16.92
2023-01-26T22:41:25.328Z,19.02
2023-01-26T22:43:57.606Z,41.13
2023-01-26T22:46:25.584Z,25.77
2023-01-26T22:48:52.944Z,25.55
2023-01-26T22:51:22.491Z,20.48
2023-01-26T22:53:50.735Z,21.60
2023-01-26T22:56:18.629Z,19.13
2023-01-26T22:58:57.986Z,20.10
2023-01-26T23:01:27.192Z,16.58
2023-01-26T23:03:54.993Z,20.63
2023-01-26T23:06:22.978Z,19.08
2023-01-26T23:08:49.869Z,20.35
2023-01-26T23:11:24.703Z,19.40
2023-01-26T23:13:58.325Z,18.00
2023-01-26T23:16:25.831Z,20.95
2023-01-26T23:18:53.921Z,16.15
2023-01-26T23:21:22.180Z,18.55
2023-01-26T23:23:49.360Z,17.80
2023-01-26T23:26:16.148Z,18.08
2023-01-26T23:28:43.662Z,18.25
2023-01-26T23:31:12.088Z,17.27
2023-01-26T23:33:39.866Z,19.63
2023-01-26T23:36:07.582Z,17.42
2023-01-26T23:38:34.371Z,16.35
2023-01-26T23:41:01.060Z,15.80
2023-01-26T23:43:30.735Z,18.38
2023-01-26T23:45:57.644Z,18.52
2023-01-26T23:48:31.549Z,18.83
2023-01-26T23:50:59.995Z,18.15
2023-01-26T23:53:28.086Z,16.42
2023-01-26T23:56:00.052Z,19.42
2023-01-26T23:58:29.274Z,18.65
